嘉手納基地の過去48時間の天気

嘉手納基地 (Kadena ab)

現在時刻: 6/3 20:30 JST (6/3 11:30 UTC) 以下の時間は現地時間です。

過去48時間のMETAR気象情報
時間 風向 風速(m/s) 視程 気温(℃) 湿度(%) 気圧(hPa) 天気現象
3 19:56 南南西 5 10km以上 26.9 92 1009.6
3 18:56 南西 6 10km以上 27.5 90 1009.3
3 17:56 南南西 7 10km以上 28.3 87 1008.9
3 16:56 南南西 8 10km以上 29.1 84 1008.6
3 15:56 南南西 9 10km以上 29.6 81 1008.9
3 14:56 南南西 8 10km以上 29.2 84 1009.3
3 13:56 南西 8 10km以上 29.3 84 1009.9
3 12:56 南南西 9 10km以上 29.7 80 1010.3
3 11:56 南南西 9 10km以上 29.6 80 1010.6
3 10:56 南南西 9 10km以上 29.5 82 1011
3 10:26 南南西 8 10km以上 29 84 1011.3
3 10:06 南南西 7 10km以上 29 84 1011.3
3 09:56 南南西 8 10km以上 28.6 86 1011.6
3 09:46 南南西 7 10km以上 28 89 1011.7
3 08:56 南南西 7 10km以上 28 87 1011.3
3 08:26 南南西 8 10km以上 28 89 1011
3 07:56 南南西 8 10km以上 27.8 88 1011
3 07:16 南南西 7 10km以上 27 89 1010.3
3 06:56 南南西 6 10km以上 26.8 93 1010.3
3 06:36 南南西 7 10km以上 27 94 1010
3 05:56 南南西 7 10km以上 26.4 94 1010
3 04:56 南南西 6 10km以上 26.2 93 1009.6
3 03:56 南南西 7 10km以上 26.4 91 1010.3
3 02:56 南南西 6 10km以上 26.4 91 1010.6
3 01:56 南南西 6 10km以上 26.5 90 1011
3 00:56 南南西 6 10km以上 26.5 90 1011.3
2 23:56 南南西 6 10km以上 26.5 91 1012
2 22:56 南南西 5 10km以上 26.6 92 1012.3
2 21:56 南南西 5 10km以上 26.8 91 1011.6
2 20:56 南南西 5 10km以上 26.9 92 1011.3
2 19:56 南南西 6 10km以上 27 91 1011
2 19:26 南南西 6 10km以上 27 94 1010.6
2 18:56 南南西 5 10km以上 27.3 91 1010.6
2 18:16 南南西 6 10km以上 28 89 1010.6
2 17:56 南西 5 10km以上 28.2 86 1010.6
2 16:56 西南西 5 10km以上 28.3 87 1010.3
2 15:56 西南西 5 10km以上 29.1 86 1010.6
2 15:46 西南西 5 10km以上 29 84 1010.6
2 15:06 南西 6 10km以上 29 84 1011
2 14:56 南西 5 10km以上 29.2 85 1011
2 14:36 南西 6 10km以上 29 84 1011
2 13:56 南西 5 10km以上 28.7 87 1011.3
2 13:06 西南西 5 10km以上 29 84 1011.7
2 12:56 南西 5 10km以上 28.9 87 1011.7
2 12:36 西南西 5 10km以上 29 84 1011.7
2 11:56 南西 4 10km以上 28 88 1012
2 11:16 南西 5 10km以上 28 89 1012
2 10:56 南西 5 10km以上 27.9 90 1012
2 10:06 西南西 4 10km以上 28 89 1012
2 09:56 南西 5 10km以上 28.2 90 1012
2 09:26 西南西 4 10km以上 28 89 1012
2 09:06 南西 5 10km以上 27 94 1012
2 08:56 南西 5 10km以上 27 92 1012
2 08:26 南西 4 10km以上 27 89 1012
2 07:56 南西 4 10km以上 26.5 93 1011.7
2 07:46 南西 5 10km以上 26 94 1011.7
2 07:36 南西 6 10km以上 26 94 1011.7
2 07:26 南西 5 10km以上 27 89 1011.7
2 07:06 南西 5 10km以上 27 89 1011.3
2 06:56 南西 5 10km以上 26.4 93 1011.3
2 05:56 南西 5 10km以上 26.4 92 1011
2 04:56 南南西 5 10km以上 26.6 91 1010.6
RODN 031056Z AUTO 21010KT 10SM CLR 27/25 A2980 RMK AO2 SLP096 T02690254 $
RODN 030956Z AUTO 22011KT 10SM CLR 28/26 A2979 RMK AO2 SLP093 T02750257 $
RODN 030856Z AUTO 21013KT 10SM FEW009 28/26 A2978 RMK AO2 SLP089 T02830259 55003 $
RODN 030756Z AUTO 21016KT 10SM CLR 29/26 A2977 RMK AO2 SLP086 T02910261 $
RODN 030656Z AUTO 20018G23KT 10SM CLR 30/26 A2978 RMK AO2 SLP089 T02960259 $
RODN 030556Z AUTO 21015G22KT 10SM FEW180 FEW200 29/26 A2979 RMK AO2 SLP093 T02920262 10299 20282 57016 $
RODN 030456Z AUTO 22016G24KT 10SM CLR 29/26 A2981 RMK AO2 SLP099 T02930263 $
RODN 030356Z AUTO 21017G22KT 10SM FEW110 FEW140 SCT170 SCT190 30/26 A2982 RMK AO2 SLP103 T02970258 $
RODN 030256Z AUTO 20017G23KT 10SM FEW200 30/26 A2983 RMK AO2 SLP106 T02960257 58008 $
RODN 030156Z AUTO 21017G24KT 10SM CLR 30/26 A2984 RMK AO2 SLP110 T02950261 $
RODN 030126Z AUTO 21015G21KT 10SM SCT016 29/26 A2985 RMK AO2 SLP113 $
RODN 030106Z AUTO 21014KT 10SM BKN016 BKN021 29/26 A2985 RMK AO2 CIG 013 RWY05 SLP113 $
RODN 030056Z AUTO 21015KT 10SM SCT016 29/26 A2986 RMK AO2 SLP116 T02860260 $
RODN 030046Z AUTO 21014KT 10SM BKN016 28/26 A2986 RMK AO2 BKN V SCT CIG 014 RWY05 SLP117 $
RODN 022356Z AUTO 21014KT 10SM BKN015 BKN020 28/26 A2985 RMK AO2 CIG 015V020 BKN015 V SCT CIG 013 RWY05 SLP113 T02800256 10289 20262 52015 $
RODN 022326Z AUTO 20015KT 10SM SCT014 28/26 A2984 RMK AO2 SLP110 $
RODN 022256Z AUTO 20016G19KT 10SM BKN013 28/26 A2984 RMK AO2 BKN V OVC CIG 012 RWY05 SLP110 T02780256 $
RODN 022216Z AUTO 20013KT 10SM BKN012 27/25 A2982 RMK AO2 SLP103 $
RODN 022156Z AUTO 20012KT 10SM BKN010 27/26 A2982 RMK AO2 CIG 009 RWY05 SLP103 T02680255 $
RODN 022136Z AUTO 20013KT 10SM BKN010 27/26 A2981 RMK AO2 BKN V SCT CIG 009 RWY05 SLP100 $
RODN 022056Z AUTO 20013KT 10SM SCT011 26/25 A2981 RMK AO2 SLP100 T02640253 55006 $
RODN 021956Z AUTO 20012KT 10SM CLR 26/25 A2980 RMK AO2 SLP096 T02620249 $
RODN 021856Z AUTO 20013KT 10SM CLR 26/25 A2982 RMK AO2 SLP103 T02640248 $
RODN 021756Z AUTO 20012KT 10SM CLR 26/25 A2983 RMK AO2 SLP106 T02640248 10269 20264 57014 $
RODN 021656Z AUTO 21011KT 10SM CLR 27/25 A2984 RMK AO2 SLP110 T02650247 $
RODN 021556Z AUTO 20012KT 10SM CLR 27/25 A2985 RMK AO2 SLP113 T02650247 $
RODN 021456Z AUTO 20011KT 10SM CLR 27/25 A2987 RMK AO2 SLP120 T02650249 402950247 50008 $
RODN 021356Z AUTO 21010KT 10SM CLR 27/25 A2988 RMK AO2 SLP123 T02660252 $
RODN 021256Z AUTO 20010KT 10SM CLR 27/25 A2986 RMK AO2 SLP116 T02680252 $
RODN 021156Z AUTO 20010KT 10SM CLR 27/25 A2985 RMK AO2 SLP113 T02690254 10292 20269 52007 $
RODN 021056Z AUTO 20011KT 10SM SCT032 27/25 A2984 RMK AO2 SLP110 T02700254 $
RODN 021026Z AUTO 20011KT 10SM OVC030 27/26 A2983 RMK AO2 SLP106 $
RODN 020956Z AUTO 20010KT 10SM OVC026 27/26 A2983 RMK AO2 SLP106 T02730257 $
RODN 020916Z AUTO 21011KT 10SM BKN023 OVC080 28/26 A2983 RMK AO2 CIG 023V080 SLP106 $
RODN 020856Z AUTO 23010KT 10SM OVC080 28/26 A2983 RMK AO2 SLP106 T02820256 55005 $
RODN 020756Z AUTO 24009KT 10SM FEW022 SCT044 28/26 A2982 RMK AO2 SLP103 T02830259 $
RODN 020656Z AUTO 24010KT 10SM FEW023 BKN033 29/27 A2983 RMK AO2 SLP106 T02910265 $
RODN 020646Z AUTO 24009KT 10SM BKN031 29/26 A2983 RMK AO2 SLP106 $
RODN 020606Z AUTO 23011KT 10SM BKN029 29/26 A2984 RMK AO2 CIG 026 RWY23 SLP110 $
RODN 020556Z AUTO 23010KT 10SM SCT030 29/26 A2984 RMK AO2 SLP110 T02920264 10295 20270 57008 $
RODN 020536Z AUTO 23011KT 10SM SCT026 29/26 A2984 RMK AO2 SLP110 $
RODN 020456Z AUTO 23010KT 10SM OVC021 29/26 A2985 RMK AO2 CIG 020 RWY23 SLP113 T02870263 $
RODN 020406Z AUTO 24009KT 10SM BKN021 BKN200 29/26 A2986 RMK AO2 CIG 021V200 CIG 020 RWY23 SLP117 $
RODN 020356Z AUTO 23009KT 10SM SCT020 SCT110 BKN200 29/27 A2986 RMK AO2 SLP117 T02890265 $
RODN 020336Z AUTO 24010KT 10SM SCT021 SCT100 SCT150 BKN190 29/26 A2986 RMK AO2 SLP117 $
RODN 020256Z AUTO 23008KT 10SM BKN020 BKN030 OVC065 28/26 A2987 RMK AO2 CIG 020V029 BKN020 V SCT SLP120 T02800258 55001 $
RODN 020216Z AUTO 23010KT 10SM BKN027 OVC060 28/26 A2987 RMK AO2 CIG 025V060 CIG 026 RWY23 SLP120 $
RODN 020156Z AUTO 23009KT 10SM OVC060 28/26 A2987 RMK AO2 SLP120 T02790261 $
RODN 020106Z AUTO 24007KT 10SM FEW017 28/26 A2987 RMK AO2 SLP120 $
RODN 020056Z AUTO 23009KT 10SM FEW011 BKN017 28/26 A2987 RMK AO2 CIG 007 RWY23 SLP120 T02820264 $
RODN 020026Z AUTO 24008KT 10SM OVC015 28/26 A2987 RMK AO2 CIG 008 RWY23 SLP120 $
RODN 020006Z AUTO 23009KT 10SM OVC013 27/26 A2987 RMK AO2 CIG 008 RWY23 SLP120 $
RODN 012356Z AUTO 23009KT 10SM OVC010 27/26 A2987 RMK AO2 CIG 008 RWY23 SLP120 T02700255 10271 20250 52010 $
RODN 012326Z AUTO 23008KT 10SM BKN011 OVC018 27/25 A2987 RMK AO2 CIG 011V018 BKN V SCT CIG 009 RWY23 SLP120 $
RODN 012256Z AUTO 23008KT 10SM FEW013 BKN019 OVC026 27/25 A2986 RMK AO2 BKN V OVC CIG 011 RWY23 SLP117 T02650252 $
RODN 012246Z AUTO 23009KT 10SM BKN019 OVC026 26/25 A2986 RMK AO2 CIG 018 RWY23 SLP117 $
RODN 012236Z AUTO 23011KT 10SM BKN020 BKN026 OVC075 26/25 A2986 RMK AO2 CIG 020V027 CIG 018 RWY23 SLP117 $
RODN 012226Z AUTO 23009KT 10SM FEW021 BKN027 OVC075 27/25 A2986 RMK AO2 CIG 027V075 CIG 024 RWY23 SLP117 $
RODN 012206Z AUTO 22009KT 10SM BKN029 27/25 A2985 RMK AO2 CIG 025 RWY23 SLP113 $
RODN 012156Z AUTO 23010KT 10SM FEW026 26/25 A2985 RMK AO2 SLP113 T02640251 $
RODN 012056Z AUTO 22010KT 10SM FEW038 SCT046 SCT075 SCT150 26/25 A2984 RMK AO2 SLP110 T02640250 55001 $
RODN 011956Z AUTO 21010KT 10SM OVC047 27/25 A2983 RMK AO2 SLP106 T02660250 $